Time,TemperatureF,DewpointF,PressureIn,WindDirection,WindDirectionDegrees,WindSpeedMPH,WindSpeedGustMPH,Humidity,HourlyPrecipIn,Conditions,Clouds,dailyrainin,SoftwareType,DateUTC
2013-08-03 00:01:00,55.9,51.0,30.04,NNW,337,0.0,0.0,83,0.00,,,0.00,WUHU21623XXSP,2013-08-03 07:01:00,
2013-08-03 00:02:00,55.9,51.0,30.04,NNW,337,0.0,0.0,83,0.00,,,0.00,WUHU21623XXSP,2013-08-03 07:02:00,
2013-08-03 00:06:00,55.9,50.8,30.04,NNW,337,0.0,0.0,83,0.00,,,0.00,WUHU21623XXSP,2013-08-03 07:06:00,
2013-08-03 00:07:00,55.9,50.8,30.04,NNW,337,0.0,0.0,83,0.00,,,0.00,WUHU21623XXSP,2013-08-03 07:07:00,
2013-08-03 00:08:00,55.9,50.8,30.04,NNW,337,0.0,0.0,83,0.00,,,0.00,WUHU21623XXSP,2013-08-03 07:08:00,
2013-08-03 00:12:00,55.8,50.6,30.04,NNW,337,0.0,0.0,83,0.00,,,0.00,WUHU21623XXSP,2013-08-03 07:12:00,
2013-08-03 00:13:00,55.8,50.6,30.05,NNW,337,0.0,0.0,83,0.00,,,0.00,WUHU21623XXSP,2013-08-03 07:13:00,
2013-08-03 00:17:00,55.6,50.4,30.04,NNW,337,0.0,0.0,83,0.00,,,0.00,WUHU21623XXSP,2013-08-03 07:17:00,
2013-08-03 00:18:00,55.6,50.4,30.04,NNW,337,0.0,0.0,83,0.00,,,0.00,WUHU21623XXSP,2013-08-03 07:18:00,
2013-08-03 00:22:00,55.4,50.3,30.04,NNW,337,0.0,0.0,83,0.00,,,0.00,WUHU21623XXSP,2013-08-03 07:22:00,
2013-08-03 00:23:00,55.4,50.3,30.04,NNW,337,0.0,0.0,83,0.00,,,0.00,WUHU21623XXSP,2013-08-03 07:23:00,
2013-08-03 00:24:00,55.2,50.1,30.04,NNW,337,0.0,0.0,83,0.00,,,0.00,WUHU21623XXSP,2013-08-03 07:24:00,
2013-08-03 00:27:00,55.2,50.1,30.04,NNW,337,0.0,0.0,83,0.00,,,0.00,WUHU21623XXSP,2013-08-03 07:27:00,
2013-08-03 00:28:00,55.2,50.1,30.04,NNW,337,0.0,0.0,83,0.00,,,0.00,WUHU21623XXSP,2013-08-03 07:28:00,
2013-08-03 00:29:00,55.2,50.1,30.04,NNW,337,0.0,0.0,83,0.00,,,0.00,WUHU21623XXSP,2013-08-03 07:29:00,
2013-08-03 00:32:00,55.2,50.1,30.04,NNW,337,0.0,0.0,83,0.00,,,0.00,WUHU21623XXSP,2013-08-03 07:32:00,
2013-08-03 00:33:00,55.2,50.1,30.04,NNW,337,0.0,0.0,83,0.00,,,0.00,WUHU21623XXSP,2013-08-03 07:33:00,
2013-08-03 00:34:00,55.2,50.1,30.04,NNW,337,0.0,0.0,83,0.00,,,0.00,WUHU21623XXSP,2013-08-03 07:34:00,
2013-08-03 00:38:00,55.0,49.9,30.04,NNW,337,0.0,0.0,83,0.00,,,0.00,WUHU21623XXSP,2013-08-03 07:38:00,
2013-08-03 00:39:00,55.0,49.9,30.04,NNW,337,0.0,0.0,83,0.00,,,0.00,WUHU21623XXSP,2013-08-03 07:39:00,
2013-08-03 00:43:00,54.9,49.7,30.04,NNW,337,0.0,0.0,83,0.00,,,0.00,WUHU21623XXSP,2013-08-03 07:43:00,
2013-08-03 00:44:00,54.9,49.7,30.04,NNW,337,0.0,0.0,83,0.00,,,0.00,WUHU21623XXSP,2013-08-03 07:44:00,
2013-08-03 00:49:00,54.7,49.9,30.04,NNW,337,0.0,0.0,84,0.00,,,0.00,WUHU21623XXSP,2013-08-03 07:49:00,
2013-08-03 00:50:00,54.7,49.9,30.04,NNW,337,0.0,0.0,84,0.00,,,0.00,WUHU21623XXSP,2013-08-03 07:50:00,
2013-08-03 00:54:00,54.5,49.7,30.04,NNW,337,0.0,0.0,84,0.00,,,0.00,WUHU21623XXSP,2013-08-03 07:54:00,
2013-08-03 00:55:00,54.5,49.7,30.04,NNW,337,0.0,0.0,84,0.00,,,0.00,WUHU21623XXSP,2013-08-03 07:55:00,
2013-08-03 00:59:00,54.5,49.7,30.04,NNW,337,0.0,0.0,84,0.00,,,0.00,WUHU21623XXSP,2013-08-03 07:59:00,
2013-08-03 01:00:00,54.5,49.7,30.04,NNW,337,0.0,0.0,84,0.00,,,0.00,WUHU21623XXSP,2013-08-03 08:00:00,
2013-08-03 01:05:00,54.3,49.5,30.04,NNW,337,0.0,0.0,84,0.00,,,0.00,WUHU21623XXSP,2013-08-03 08:05:00,
2013-08-03 01:06:00,54.3,49.5,30.03,NNW,337,0.0,0.0,84,0.00,,,0.00,WUHU21623XXSP,2013-08-03 08:06:00,
2013-08-03 01:07:00,54.3,49.5,30.03,NNW,337,0.0,0.0,84,0.00,,,0.00,WUHU21623XXSP,2013-08-03 08:07:00,
2013-08-03 01:11:00,54.1,49.4,30.03,NNW,337,0.0,0.0,84,0.00,,,0.00,WUHU21623XXSP,2013-08-03 08:11:00,
2013-08-03 01:12:00,54.1,49.4,30.03,NNW,337,0.0,0.0,84,0.00,,,0.00,WUHU21623XXSP,2013-08-03 08:12:00,
2013-08-03 01:16:00,54.1,49.4,30.03,NNW,337,0.0,0.0,84,0.00,,,0.00,WUHU21623XXSP,2013-08-03 08:16:00,
2013-08-03 01:17:00,54.1,49.4,30.03,NNW,337,0.0,0.0,84,0.00,,,0.00,WUHU21623XXSP,2013-08-03 08:17:00,
2013-08-03 01:21:00,54.0,49.2,30.03,NNW,337,0.0,0.0,84,0.00,,,0.00,WUHU21623XXSP,2013-08-03 08:21:00,
2013-08-03 01:22:00,54.0,49.2,30.03,NNW,337,0.0,0.0,84,0.00,,,0.00,WUHU21623XXSP,2013-08-03 08:22:00,
2013-08-03 01:28:00,53.8,49.0,30.03,NNW,337,0.0,0.0,84,0.00,,,0.00,WUHU21623XXSP,2013-08-03 08:28:00,
2013-08-03 01:33:00,53.8,49.0,30.04,NNW,337,0.0,0.0,84,0.00,,,0.00,WUHU21623XXSP,2013-08-03 08:33:00,
2013-08-03 01:34:00,53.8,49.0,30.04,NNW,337,0.0,0.0,84,0.00,,,0.00,WUHU21623XXSP,2013-08-03 08:34:00,
2013-08-03 01:38:00,53.8,49.0,30.04,NNW,337,0.0,0.0,84,0.00,,,0.00,WUHU21623XXSP,2013-08-03 08:38:00,
2013-08-03 01:39:00,53.8,49.0,30.04,NNW,337,0.0,0.0,84,0.00,,,0.00,WUHU21623XXSP,2013-08-03 08:39:00,
2013-08-03 01:43:00,53.4,48.7,30.04,NNW,337,0.0,0.0,84,0.00,,,0.00,WUHU21623XXSP,2013-08-03 08:43:00,
2013-08-03 01:44:00,53.4,48.7,30.04,NNW,337,0.0,0.0,84,0.00,,,0.00,WUHU21623XXSP,2013-08-03 08:44:00,
2013-08-03 01:48:00,53.4,48.7,30.03,NNW,337,0.0,0.0,84,0.00,,,0.00,WUHU21623XXSP,2013-08-03 08:48:00,
2013-08-03 01:51:00,53.4,49.0,30.03,NNW,337,0.0,0.0,85,0.00,,,0.00,WUHU21623XXSP,2013-08-03 08:51:00,
2013-08-03 01:52:00,53.4,49.0,30.03,NNW,337,0.0,0.0,85,0.00,,,0.00,WUHU21623XXSP,2013-08-03 08:52:00,
2013-08-03 01:53:00,53.4,49.0,30.03,NNW,337,0.0,0.0,85,0.00,,,0.00,WUHU21623XXSP,2013-08-03 08:53:00,
2013-08-03 01:54:00,53.4,49.0,30.03,NNW,337,0.0,0.0,85,0.00,,,0.00,WUHU21623XXSP,2013-08-03 08:54:00,
2013-08-03 01:56:00,53.4,49.0,30.03,NNW,337,0.0,0.0,85,0.00,,,0.00,WUHU21623XXSP,2013-08-03 08:56:00,
2013-08-03 01:57:00,53.4,49.0,30.03,NNW,337,0.0,0.0,85,0.00,,,0.00,WUHU21623XXSP,2013-08-03 08:57:00,
2013-08-03 01:58:00,53.4,49.0,30.03,NNW,337,0.0,0.0,85,0.00,,,0.00,WUHU21623XXSP,2013-08-03 08:58:00,
2013-08-03 01:59:00,53.4,49.0,30.03,NNW,337,0.0,0.0,85,0.00,,,0.00,WUHU21623XXSP,2013-08-03 08:59:00,
2013-08-03 02:02:00,53.2,48.8,30.04,NNW,337,0.0,0.0,85,0.00,,,0.00,WUHU21623XXSP,2013-08-03 09:02:00,
2013-08-03 02:03:00,53.2,48.8,30.04,NNW,337,0.0,0.0,85,0.00,,,0.00,WUHU21623XXSP,2013-08-03 09:03:00,
2013-08-03 02:04:00,53.2,48.8,30.04,NNW,337,0.0,0.0,85,0.00,,,0.00,WUHU21623XXSP,2013-08-03 09:04:00,
2013-08-03 02:07:00,53.2,48.8,30.04,NNW,337,0.0,0.0,85,0.00,,,0.00,WUHU21623XXSP,2013-08-03 09:07:00,
2013-08-03 02:08:00,53.2,48.8,30.04,NNW,337,0.0,0.0,85,0.00,,,0.00,WUHU21623XXSP,2013-08-03 09:08:00,
2013-08-03 02:10:00,53.2,48.8,30.04,NNW,337,0.0,0.0,85,0.00,,,0.00,WUHU21623XXSP,2013-08-03 09:10:00,
2013-08-03 02:12:00,52.9,48.5,30.03,NNW,337,0.0,0.0,85,0.00,,,0.00,WUHU21623XXSP,2013-08-03 09:12:00,
2013-08-03 02:13:00,52.9,48.5,30.03,NNW,337,0.0,0.0,85,0.00,,,0.00,WUHU21623XXSP,2013-08-03 09:13:00,
2013-08-03 02:15:00,52.9,48.5,30.04,NNW,337,0.0,0.0,85,0.00,,,0.00,WUHU21623XXSP,2013-08-03 09:15:00,
2013-08-03 02:18:00,52.9,48.5,30.03,NNW,337,0.0,0.0,85,0.00,,,0.00,WUHU21623XXSP,2013-08-03 09:18:00,
2013-08-03 02:19:00,52.9,48.5,30.03,NNW,337,0.0,0.0,85,0.00,,,0.00,WUHU21623XXSP,2013-08-03 09:19:00,
2013-08-03 02:20:00,52.9,48.5,30.03,NNW,337,0.0,0.0,85,0.00,,,0.00,WUHU21623XXSP,2013-08-03 09:20:00,
2013-08-03 02:23:00,52.9,48.5,30.04,NNW,337,0.0,0.0,85,0.00,,,0.00,WUHU21623XXSP,2013-08-03 09:23:00,
2013-08-03 02:24:00,52.7,48.3,30.03,NNW,337,0.0,0.0,85,0.00,,,0.00,WUHU21623XXSP,2013-08-03 09:24:00,
2013-08-03 02:25:00,52.7,48.3,30.03,NNW,337,0.0,0.0,85,0.00,,,0.00,WUHU21623XXSP,2013-08-03 09:25:00,
2013-08-03 02:30:00,52.5,48.1,30.03,NNW,337,0.0,0.0,85,0.00,,,0.00,WUHU21623XXSP,2013-08-03 09:30:00,
2013-08-03 02:35:00,52.5,48.1,30.03,NNW,337,0.0,0.0,85,0.00,,,0.00,WUHU21623XXSP,2013-08-03 09:35:00,
2013-08-03 02:36:00,52.5,48.1,30.03,NNW,337,0.0,0.0,85,0.00,,,0.00,WUHU21623XXSP,2013-08-03 09:36:00,
2013-08-03 02:40:00,52.5,48.1,30.04,NNW,337,0.0,0.0,85,0.00,,,0.00,WUHU21623XXSP,2013-08-03 09:40:00,
2013-08-03 02:41:00,52.3,48.1,30.03,NNW,337,0.0,0.0,86,0.00,,,0.00,WUHU21623XXSP,2013-08-03 09:41:00,
2013-08-03 02:45:00,52.3,48.2,30.03,NNW,337,0.0,0.0,86,0.00,,,0.00,WUHU21623XXSP,2013-08-03 09:45:00,
2013-08-03 02:46:00,52.3,48.2,30.03,NNW,337,0.0,0.0,86,0.00,,,0.00,WUHU21623XXSP,2013-08-03 09:46:00,
2013-08-03 02:47:00,52.3,48.2,30.03,NNW,337,0.0,0.0,86,0.00,,,0.00,WUHU21623XXSP,2013-08-03 09:47:00,
2013-08-03 02:50:00,52.3,48.2,30.03,NNW,337,0.0,0.0,86,0.00,,,0.00,WUHU21623XXSP,2013-08-03 09:50:00,
2013-08-03 02:51:00,52.3,48.2,30.03,NNW,337,0.0,0.0,86,0.00,,,0.00,WUHU21623XXSP,2013-08-03 09:51:00,
2013-08-03 02:52:00,52.3,48.2,30.03,NNW,337,0.0,0.0,86,0.00,,,0.00,WUHU21623XXSP,2013-08-03 09:52:00,
2013-08-03 02:55:00,52.3,48.2,30.03,NNW,337,0.0,0.0,86,0.00,,,0.00,WUHU21623XXSP,2013-08-03 09:55:00,
2013-08-03 02:56:00,52.3,48.2,30.03,NNW,337,0.0,0.0,86,0.00,,,0.00,WUHU21623XXSP,2013-08-03 09:56:00,
2013-08-03 02:57:00,52.3,48.2,30.03,NNW,337,0.0,0.0,86,0.00,,,0.00,WUHU21623XXSP,2013-08-03 09:57:00,
2013-08-03 03:00:00,52.3,48.2,30.03,NNW,337,0.0,0.0,86,0.00,,,0.00,WUHU21623XXSP,2013-08-03 10:00:00,
2013-08-03 03:01:00,52.3,48.2,30.03,NNW,337,0.0,0.0,86,0.00,,,0.00,WUHU21623XXSP,2013-08-03 10:01:00,
2013-08-03 03:02:00,52.3,48.2,30.03,NNW,337,0.0,0.0,86,0.00,,,0.00,WUHU21623XXSP,2013-08-03 10:02:00,
2013-08-03 03:06:00,52.2,48.1,30.03,NNW,337,0.0,0.0,86,0.00,,,0.00,WUHU21623XXSP,2013-08-03 10:06:00,
2013-08-03 03:07:00,52.2,48.1,30.03,NNW,337,0.0,0.0,86,0.00,,,0.00,WUHU21623XXSP,2013-08-03 10:07:00,
2013-08-03 03:08:00,52.2,48.1,30.03,NNW,337,0.0,0.0,86,0.00,,,0.00,WUHU21623XXSP,2013-08-03 10:08:00,
2013-08-03 03:12:00,52.3,48.2,30.04,NNW,337,0.0,0.0,86,0.00,,,0.00,WUHU21623XXSP,2013-08-03 10:12:00,
2013-08-03 03:13:00,52.2,48.1,30.04,NNW,337,0.0,0.0,86,0.00,,,0.00,WUHU21623XXSP,2013-08-03 10:13:00,
2013-08-03 03:17:00,52.2,48.1,30.03,NNW,337,0.0,0.0,86,0.00,,,0.00,WUHU21623XXSP,2013-08-03 10:17:00,
2013-08-03 03:18:00,52.2,48.1,30.03,NNW,337,0.0,0.0,86,0.00,,,0.00,WUHU21623XXSP,2013-08-03 10:18:00,
2013-08-03 03:22:00,52.2,48.1,30.03,NNW,337,0.0,0.0,86,0.00,,,0.00,WUHU21623XXSP,2013-08-03 10:22:00,
2013-08-03 03:23:00,52.2,48.1,30.03,NNW,337,0.0,0.0,86,0.00,,,0.00,WUHU21623XXSP,2013-08-03 10:23:00,
2013-08-03 03:27:00,52.2,48.1,30.03,NNW,337,0.0,0.0,86,0.00,,,0.00,WUHU21623XXSP,2013-08-03 10:27:00,
2013-08-03 03:28:00,52.2,48.1,30.03,NNW,337,0.0,0.0,86,0.00,,,0.00,WUHU21623XXSP,2013-08-03 10:28:00,
2013-08-03 03:33:00,52.2,48.1,30.03,NNW,337,0.0,0.0,86,0.00,,,0.00,WUHU21623XXSP,2013-08-03 10:33:00,
2013-08-03 03:34:00,52.2,48.1,30.03,NNW,337,0.0,0.0,86,0.00,,,0.00,WUHU21623XXSP,2013-08-03 10:34:00,
2013-08-03 03:38:00,52.2,48.1,30.03,NNW,337,0.0,0.0,86,0.00,,,0.00,WUHU21623XXSP,2013-08-03 10:38:00,
2013-08-03 03:39:00,52.2,48.1,30.03,NNW,337,0.0,0.0,86,0.00,,,0.00,WUHU21623XXSP,2013-08-03 10:39:00,
2013-08-03 03:43:00,52.2,48.1,30.03,NNW,337,0.0,0.0,86,0.00,,,0.00,WUHU21623XXSP,2013-08-03 10:43:00,
2013-08-03 03:44:00,52.2,48.1,30.03,NNW,337,0.0,0.0,86,0.00,,,0.00,WUHU21623XXSP,2013-08-03 10:44:00,
2013-08-03 03:48:00,52.2,48.1,30.03,NNW,337,0.0,0.0,86,0.00,,,0.00,WUHU21623XXSP,2013-08-03 10:48:00,
2013-08-03 03:49:00,52.2,48.1,30.03,NNW,337,0.0,0.0,86,0.00,,,0.00,WUHU21623XXSP,2013-08-03 10:49:00,
2013-08-03 03:50:00,52.2,48.1,30.03,NNW,337,0.0,0.0,86,0.00,,,0.00,WUHU21623XXSP,2013-08-03 10:50:00,
2013-08-03 03:54:00,52.0,48.1,30.03,NNW,337,0.0,0.0,86,0.00,,,0.00,WUHU21623XXSP,2013-08-03 10:54:00,
2013-08-03 03:56:00,52.2,48.1,30.03,NNW,337,0.0,0.0,86,0.00,,,0.00,WUHU21623XXSP,2013-08-03 10:56:00,
2013-08-03 03:59:00,52.0,48.2,30.03,NNW,337,0.0,0.0,87,0.00,,,0.00,WUHU21623XXSP,2013-08-03 10:59:00,
2013-08-03 04:01:00,52.0,48.2,30.03,NNW,337,0.0,0.0,87,0.00,,,0.00,WUHU21623XXSP,2013-08-03 11:01:00,
2013-08-03 04:04:00,52.0,48.2,30.03,NNW,337,0.0,0.0,87,0.00,,,0.00,WUHU21623XXSP,2013-08-03 11:04:00,
2013-08-03 04:05:00,52.0,48.2,30.03,NNW,337,0.0,0.0,87,0.00,,,0.00,WUHU21623XXSP,2013-08-03 11:05:00,
2013-08-03 04:06:00,52.0,48.2,30.03,NNW,337,0.0,0.0,87,0.00,,,0.00,WUHU21623XXSP,2013-08-03 11:06:00,
2013-08-03 04:10:00,52.0,48.2,30.03,NNW,337,0.0,0.0,87,0.00,,,0.00,WUHU21623XXSP,2013-08-03 11:10:00,
2013-08-03 04:11:00,52.0,48.2,30.03,NNW,337,0.0,0.0,87,0.00,,,0.00,WUHU21623XXSP,2013-08-03 11:11:00,
2013-08-03 04:15:00,51.8,48.0,30.03,NNW,337,0.0,0.0,87,0.00,,,0.00,WUHU21623XXSP,2013-08-03 11:15:00,
2013-08-03 04:16:00,51.8,48.0,30.03,NNW,337,0.0,0.0,87,0.00,,,0.00,WUHU21623XXSP,2013-08-03 11:16:00,
2013-08-03 04:18:00,51.8,48.0,30.03,NNW,337,0.0,0.0,87,0.00,,,0.00,WUHU21623XXSP,2013-08-03 11:18:00,
2013-08-03 04:21:00,51.6,47.8,30.03,NNW,337,0.0,0.0,87,0.00,,,0.00,WUHU21623XXSP,2013-08-03 11:21:00,
2013-08-03 04:22:00,51.6,47.8,30.03,NNW,337,0.0,0.0,87,0.00,,,0.00,WUHU21623XXSP,2013-08-03 11:22:00,
2013-08-03 04:23:00,51.6,47.8,30.03,NNW,337,0.0,0.0,87,0.00,,,0.00,WUHU21623XXSP,2013-08-03 11:23:00,
2013-08-03 04:27:00,51.6,47.8,30.03,NNW,337,0.0,0.0,87,0.00,,,0.00,WUHU21623XXSP,2013-08-03 11:27:00,
2013-08-03 04:28:00,51.6,47.8,30.03,NNW,337,0.0,0.0,87,0.00,,,0.00,WUHU21623XXSP,2013-08-03 11:28:00,
2013-08-03 04:32:00,51.6,47.8,30.03,NNW,337,0.0,0.0,87,0.00,,,0.00,WUHU21623XXSP,2013-08-03 11:32:00,
2013-08-03 04:33:00,51.6,47.8,30.03,NNW,337,0.0,0.0,87,0.00,,,0.00,WUHU21623XXSP,2013-08-03 11:33:00,
2013-08-03 04:37:00,51.4,47.6,30.03,NNW,337,0.0,0.0,87,0.00,,,0.00,WUHU21623XXSP,2013-08-03 11:37:00,
2013-08-03 04:38:00,51.4,47.6,30.03,NNW,337,0.0,0.0,87,0.00,,,0.00,WUHU21623XXSP,2013-08-03 11:38:00,
2013-08-03 04:39:00,51.4,47.6,30.03,NNW,337,0.0,0.0,87,0.00,,,0.00,WUHU21623XXSP,2013-08-03 11:39:00,
2013-08-03 04:42:00,51.4,47.6,30.03,NNW,337,0.0,0.0,87,0.00,,,0.00,WUHU21623XXSP,2013-08-03 11:42:00,
2013-08-03 04:43:00,51.4,47.6,30.03,NNW,337,0.0,0.0,87,0.00,,,0.00,WUHU21623XXSP,2013-08-03 11:43:00,
2013-08-03 04:44:00,51.4,47.6,30.03,NNW,337,0.0,0.0,87,0.00,,,0.00,WUHU21623XXSP,2013-08-03 11:44:00,
2013-08-03 04:48:00,51.4,47.6,30.03,NNW,337,0.0,0.0,87,0.00,,,0.00,WUHU21623XXSP,2013-08-03 11:48:00,
2013-08-03 04:49:00,51.4,47.6,30.03,NNW,337,0.0,0.0,87,0.00,,,0.00,WUHU21623XXSP,2013-08-03 11:49:00,
2013-08-03 04:50:00,51.4,47.6,30.03,NNW,337,0.0,0.0,87,0.00,,,0.00,WUHU21623XXSP,2013-08-03 11:50:00,
2013-08-03 04:53:00,51.4,47.6,30.03,NNW,337,0.0,0.0,87,0.00,,,0.00,WUHU21623XXSP,2013-08-03 11:53:00,
2013-08-03 04:54:00,51.4,47.6,30.03,NNW,337,0.0,0.0,87,0.00,,,0.00,WUHU21623XXSP,2013-08-03 11:54:00,
2013-08-03 04:55:00,51.4,47.6,30.03,NNW,337,0.0,0.0,87,0.00,,,0.00,WUHU21623XXSP,2013-08-03 11:55:00,
2013-08-03 04:58:00,51.3,47.5,30.03,NNW,337,0.0,0.0,87,0.00,,,0.00,WUHU21623XXSP,2013-08-03 11:58:00,
2013-08-03 04:59:00,51.3,47.5,30.03,NNW,337,0.0,0.0,87,0.00,,,0.00,WUHU21623XXSP,2013-08-03 11:59:00,
2013-08-03 05:00:00,51.3,47.5,30.03,NNW,337,0.0,0.0,87,0.00,,,0.00,WUHU21623XXSP,2013-08-03 12:00:00,
2013-08-03 05:03:00,51.1,47.3,30.03,NNW,337,0.0,0.0,87,0.00,,,0.00,WUHU21623XXSP,2013-08-03 12:03:00,
2013-08-03 05:04:00,51.1,47.3,30.03,NNW,337,0.0,0.0,87,0.00,,,0.00,WUHU21623XXSP,2013-08-03 12:04:00,
2013-08-03 05:05:00,51.1,47.3,30.03,NNW,337,0.0,0.0,87,0.00,,,0.00,WUHU21623XXSP,2013-08-03 12:05:00,
2013-08-03 05:08:00,51.1,47.3,30.03,NNW,337,0.0,0.0,87,0.00,,,0.00,WUHU21623XXSP,2013-08-03 12:08:00,
2013-08-03 05:09:00,51.1,47.3,30.03,NNW,337,0.0,0.0,87,0.00,,,0.00,WUHU21623XXSP,2013-08-03 12:09:00,
2013-08-03 05:13:00,51.1,47.3,30.03,NNW,337,0.0,0.0,87,0.00,,,0.00,WUHU21623XXSP,2013-08-03 12:13:00,
2013-08-03 05:14:00,51.1,47.3,30.03,NNW,337,0.0,0.0,87,0.00,,,0.00,WUHU21623XXSP,2013-08-03 12:14:00,
2013-08-03 05:15:00,51.1,47.3,30.03,NNW,337,0.0,0.0,87,0.00,,,0.00,WUHU21623XXSP,2013-08-03 12:15:00,
2013-08-03 05:18:00,51.1,47.3,30.03,NNW,337,0.0,0.0,87,0.00,,,0.00,WUHU21623XXSP,2013-08-03 12:18:00,
2013-08-03 05:19:00,51.1,47.3,30.03,NNW,337,0.0,0.0,87,0.00,,,0.00,WUHU21623XXSP,2013-08-03 12:19:00,
2013-08-03 05:20:00,50.9,47.1,30.03,NNW,337,0.0,0.0,87,0.00,,,0.00,WUHU21623XXSP,2013-08-03 12:20:00,
2013-08-03 05:25:00,50.9,47.1,30.03,NNW,337,0.0,0.0,87,0.00,,,0.00,WUHU21623XXSP,2013-08-03 12:25:00,
2013-08-03 05:26:00,50.9,47.1,30.03,NNW,337,0.0,0.0,87,0.00,,,0.00,WUHU21623XXSP,2013-08-03 12:26:00,
2013-08-03 05:32:00,50.7,46.9,30.03,NNW,337,0.0,0.0,87,0.00,,,0.00,WUHU21623XXSP,2013-08-03 12:32:00,
2013-08-03 05:38:00,50.7,46.9,30.03,NNW,337,0.0,0.0,87,0.00,,,0.00,WUHU21623XXSP,2013-08-03 12:38:00,
2013-08-03 05:39:00,50.7,46.9,30.03,NNW,337,0.0,0.0,87,0.00,,,0.00,WUHU21623XXSP,2013-08-03 12:39:00,
2013-08-03 05:43:00,50.7,46.9,30.03,NNW,337,0.0,0.0,87,0.00,,,0.00,WUHU21623XXSP,2013-08-03 12:43:00,
2013-08-03 05:44:00,50.7,46.9,30.03,NNW,337,0.0,0.0,87,0.00,,,0.00,WUHU21623XXSP,2013-08-03 12:44:00,
2013-08-03 05:51:00,50.5,46.7,30.03,NNW,337,0.0,0.0,87,0.00,,,0.00,WUHU21623XXSP,2013-08-03 12:51:00,
2013-08-03 05:52:00,50.5,46.7,30.03,NNW,337,0.0,0.0,87,0.00,,,0.00,WUHU21623XXSP,2013-08-03 12:52:00,
2013-08-03 05:56:00,50.5,46.7,30.03,NNW,337,0.0,0.0,87,0.00,,,0.00,WUHU21623XXSP,2013-08-03 12:56:00,
2013-08-03 05:57:00,50.5,46.7,30.03,NNW,337,0.0,0.0,87,0.00,,,0.00,WUHU21623XXSP,2013-08-03 12:57:00,
2013-08-03 05:58:00,50.5,46.7,30.03,NNW,337,0.0,0.0,87,0.00,,,0.00,WUHU21623XXSP,2013-08-03 12:58:00,
2013-08-03 06:02:00,50.5,47.0,30.03,NNW,337,0.0,0.0,88,0.00,,,0.00,WUHU21623XXSP,2013-08-03 13:02:00,
2013-08-03 06:03:00,50.5,47.0,30.03,NNW,337,0.0,0.0,88,0.00,,,0.00,WUHU21623XXSP,2013-08-03 13:03:00,
2013-08-03 06:07:00,50.7,47.2,30.03,NNW,337,0.0,0.0,88,0.00,,,0.00,WUHU21623XXSP,2013-08-03 13:07:00,
2013-08-03 06:08:00,50.7,47.2,30.03,NNW,337,0.0,0.0,88,0.00,,,0.00,WUHU21623XXSP,2013-08-03 13:08:00,
2013-08-03 06:12:00,50.5,47.0,30.04,NNW,337,0.0,0.0,88,0.00,,,0.00,WUHU21623XXSP,2013-08-03 13:12:00,
2013-08-03 06:13:00,50.5,47.0,30.04,NNW,337,0.0,0.0,88,0.00,,,0.00,WUHU21623XXSP,2013-08-03 13:13:00,
2013-08-03 06:14:00,50.5,47.0,30.04,NNW,337,0.0,0.0,88,0.00,,,0.00,WUHU21623XXSP,2013-08-03 13:14:00,
2013-08-03 06:17:00,50.5,47.0,30.04,NNW,337,0.0,0.0,88,0.00,,,0.00,WUHU21623XXSP,2013-08-03 13:17:00,
2013-08-03 06:18:00,50.5,47.0,30.04,NNW,337,0.0,0.0,88,0.00,,,0.00,WUHU21623XXSP,2013-08-03 13:18:00,
2013-08-03 06:19:00,50.5,47.0,30.04,NNW,337,0.0,0.0,88,0.00,,,0.00,WUHU21623XXSP,2013-08-03 13:19:00,
2013-08-03 06:23:00,50.5,47.0,30.04,NNW,337,0.0,0.0,88,0.00,,,0.00,WUHU21623XXSP,2013-08-03 13:23:00,
2013-08-03 06:24:00,50.5,47.0,30.04,NNW,337,0.0,0.0,88,0.00,,,0.00,WUHU21623XXSP,2013-08-03 13:24:00,
2013-08-03 06:25:00,50.5,47.0,30.04,NNW,337,0.0,0.0,88,0.00,,,0.00,WUHU21623XXSP,2013-08-03 13:25:00,
2013-08-03 06:28:00,50.5,47.0,30.03,NNW,337,0.0,0.0,88,0.00,,,0.00,WUHU21623XXSP,2013-08-03 13:28:00,
2013-08-03 06:29:00,50.5,47.0,30.03,NNW,337,0.0,0.0,88,0.00,,,0.00,WUHU21623XXSP,2013-08-03 13:29:00,
2013-08-03 06:30:00,50.5,47.0,30.04,NNW,337,0.0,0.0,88,0.00,,,0.00,WUHU21623XXSP,2013-08-03 13:30:00,
2013-08-03 06:33:00,50.5,47.0,30.04,NNW,337,0.0,0.0,88,0.00,,,0.00,WUHU21623XXSP,2013-08-03 13:33:00,
2013-08-03 06:34:00,50.7,47.2,30.04,NNW,337,0.0,0.0,88,0.00,,,0.00,WUHU21623XXSP,2013-08-03 13:34:00,
2013-08-03 06:35:00,50.7,47.2,30.04,NNW,337,0.0,0.0,88,0.00,,,0.00,WUHU21623XXSP,2013-08-03 13:35:00,
2013-08-03 06:38:00,50.7,47.2,30.04,South,180,0.0,0.0,88,0.00,,,0.00,WUHU21623XXSP,2013-08-03 13:38:00,
2013-08-03 06:39:00,50.7,47.2,30.04,South,180,0.0,0.0,88,0.00,,,0.00,WUHU21623XXSP,2013-08-03 13:39:00,
2013-08-03 06:40:00,50.7,47.2,30.04,South,180,0.0,0.0,88,0.00,,,0.00,WUHU21623XXSP,2013-08-03 13:40:00,
2013-08-03 06:43:00,50.7,47.2,30.04,South,180,0.0,0.0,88,0.00,,,0.00,WUHU21623XXSP,2013-08-03 13:43:00,
2013-08-03 06:44:00,50.7,47.2,30.04,South,180,0.0,0.0,88,0.00,,,0.00,WUHU21623XXSP,2013-08-03 13:44:00,
2013-08-03 06:45:00,50.7,47.2,30.04,South,180,0.0,0.0,88,0.00,,,0.00,WUHU21623XXSP,2013-08-03 13:45:00,
2013-08-03 06:46:00,50.7,47.2,30.04,South,180,0.0,0.0,88,0.00,,,0.00,WUHU21623XXSP,2013-08-03 13:46:00,
2013-08-03 06:48:00,50.9,47.4,30.04,South,180,0.0,0.0,88,0.00,,,0.00,WUHU21623XXSP,2013-08-03 13:48:00,
2013-08-03 06:49:00,50.9,47.4,30.04,South,180,0.0,0.0,88,0.00,,,0.00,WUHU21623XXSP,2013-08-03 13:49:00,
2013-08-03 06:50:00,50.9,47.4,30.04,South,180,0.0,0.0,88,0.00,,,0.00,WUHU21623XXSP,2013-08-03 13:50:00,
2013-08-03 06:53:00,50.9,47.4,30.04,South,180,0.0,0.0,88,0.00,,,0.00,WUHU21623XXSP,2013-08-03 13:53:00,
2013-08-03 06:54:00,50.9,47.4,30.04,South,180,0.0,0.0,88,0.00,,,0.00,WUHU21623XXSP,2013-08-03 13:54:00,
2013-08-03 06:55:00,50.9,47.4,30.04,South,180,0.0,0.0,88,0.00,,,0.00,WUHU21623XXSP,2013-08-03 13:55:00,
2013-08-03 06:56:00,50.9,47.4,30.04,South,180,0.0,0.0,88,0.00,,,0.00,WUHU21623XXSP,2013-08-03 13:56:00,
2013-08-03 06:59:00,50.9,47.4,30.04,South,180,0.0,0.0,88,0.00,,,0.00,WUHU21623XXSP,2013-08-03 13:59:00,
2013-08-03 07:00:00,50.9,47.4,30.04,South,180,0.0,0.0,88,0.00,,,0.00,WUHU21623XXSP,2013-08-03 14:00:00,
2013-08-03 07:01:00,50.9,47.4,30.04,South,180,0.0,0.0,88,0.00,,,0.00,WUHU21623XXSP,2013-08-03 14:01:00,
2013-08-03 07:04:00,50.9,47.4,30.04,South,180,0.0,0.0,88,0.00,,,0.00,WUHU21623XXSP,2013-08-03 14:04:00,
2013-08-03 07:05:00,50.9,47.4,30.04,South,180,0.0,0.0,88,0.00,,,0.00,WUHU21623XXSP,2013-08-03 14:05:00,
2013-08-03 07:06:00,50.9,47.4,30.04,South,180,0.0,0.0,88,0.00,,,0.00,WUHU21623XXSP,2013-08-03 14:06:00,
2013-08-03 07:08:00,50.9,47.4,30.04,South,180,0.0,0.0,88,0.00,,,0.00,WUHU21623XXSP,2013-08-03 14:08:00,
2013-08-03 07:09:00,50.9,47.4,30.04,South,180,0.0,0.0,88,0.00,,,0.00,WUHU21623XXSP,2013-08-03 14:09:00,
2013-08-03 07:10:00,50.9,47.4,30.04,South,180,0.0,0.0,88,0.00,,,0.00,WUHU21623XXSP,2013-08-03 14:10:00,
2013-08-03 07:12:00,50.9,47.4,30.04,South,180,0.0,0.0,88,0.00,,,0.00,WUHU21623XXSP,2013-08-03 14:12:00,
2013-08-03 07:14:00,50.9,47.4,30.04,South,180,0.0,0.0,88,0.00,,,0.00,WUHU21623XXSP,2013-08-03 14:14:00,
2013-08-03 07:15:00,50.9,47.4,30.05,South,180,0.0,0.0,88,0.00,,,0.00,WUHU21623XXSP,2013-08-03 14:15:00,
2013-08-03 07:17:00,50.9,47.4,30.05,South,180,0.0,0.0,88,0.00,,,0.00,WUHU21623XXSP,2013-08-03 14:17:00,
2013-08-03 07:20:00,50.9,47.4,30.04,South,180,0.0,0.0,88,0.00,,,0.00,WUHU21623XXSP,2013-08-03 14:20:00,
2013-08-03 07:22:00,51.1,47.6,30.04,South,180,0.0,0.0,88,0.00,,,0.00,WUHU21623XXSP,2013-08-03 14:22:00,
2013-08-03 07:25:00,51.1,47.6,30.04,South,180,0.0,0.0,88,0.00,,,0.00,WUHU21623XXSP,2013-08-03 14:25:00,
2013-08-03 07:28:00,51.1,47.6,30.04,South,180,0.0,0.0,88,0.00,,,0.00,WUHU21623XXSP,2013-08-03 14:28:00,
2013-08-03 07:30:00,51.1,47.6,30.04,South,180,0.0,0.0,88,0.00,,,0.00,WUHU21623XXSP,2013-08-03 14:30:00,
2013-08-03 07:31:00,51.1,47.6,30.04,South,180,0.0,0.0,88,0.00,,,0.00,WUHU21623XXSP,2013-08-03 14:31:00,
2013-08-03 10:09:00,63.1,62.9,30.04,East,90,0.0,0.0,99,0.00,,,0.00,WUHU21623XXSP,2013-08-03 17:09:00,
2013-08-03 10:10:00,63.1,62.9,30.04,East,90,0.0,0.0,99,0.00,,,0.00,WUHU21623XXSP,2013-08-03 17:10:00,
2013-08-03 10:14:00,63.3,63.0,30.04,ESE,112,0.0,0.0,99,0.00,,,0.00,WUHU21623XXSP,2013-08-03 17:14:00,
2013-08-03 10:15:00,63.3,63.0,30.04,ESE,112,0.0,0.0,99,0.00,,,0.00,WUHU21623XXSP,2013-08-03 17:15:00,
2013-08-03 10:19:00,63.7,63.4,30.04,West,270,0.0,0.0,99,0.00,,,0.00,WUHU21623XXSP,2013-08-03 17:19:00,
2013-08-03 10:20:00,63.7,63.4,30.04,West,270,0.0,0.0,99,0.00,,,0.00,WUHU21623XXSP,2013-08-03 17:20:00,
2013-08-03 10:37:00,65.5,65.2,30.04,NNE,22,0.0,0.0,99,0.00,,,0.00,WUHU21623XXSP,2013-08-03 17:37:00,
2013-08-03 10:38:00,65.5,65.2,30.04,NNE,22,0.0,0.0,99,0.00,,,0.00,WUHU21623XXSP,2013-08-03 17:38:00,
2013-08-03 11:07:00,69.3,60.6,30.03,West,270,1.6,1.6,74,0.00,,,0.00,WUHU21623XXSP,2013-08-03 18:07:00,
2013-08-03 11:08:00,69.3,60.6,30.03,West,270,1.6,1.6,74,0.00,,,0.00,WUHU21623XXSP,2013-08-03 18:08:00,
2013-08-03 11:13:00,69.6,60.9,30.03,NW,315,5.4,5.4,74,0.00,,,0.00,WUHU21623XXSP,2013-08-03 18:13:00,
2013-08-03 11:14:00,69.6,60.9,30.03,NW,315,5.4,5.4,74,0.00,,,0.00,WUHU21623XXSP,2013-08-03 18:14:00,
2013-08-03 11:18:00,69.8,60.7,30.03,WNW,292,3.6,5.4,73,0.00,,,0.00,WUHU21623XXSP,2013-08-03 18:18:00,
2013-08-03 11:19:00,70.0,60.5,30.03,NNE,22,0.0,5.4,72,0.00,,,0.00,WUHU21623XXSP,2013-08-03 18:19:00,
2013-08-03 11:23:00,70.3,60.5,30.03,WNW,292,2.0,3.6,71,0.00,,,0.00,WUHU21623XXSP,2013-08-03 18:23:00,
2013-08-03 11:24:00,70.3,60.5,30.03,WNW,292,2.0,3.6,71,0.00,,,0.00,WUHU21623XXSP,2013-08-03 18:24:00,
2013-08-03 11:28:00,70.5,60.5,30.03,SW,225,0.0,2.0,71,0.00,,,0.00,WUHU21623XXSP,2013-08-03 18:28:00,
2013-08-03 11:29:00,70.5,60.5,30.03,SW,225,0.0,2.0,71,0.00,,,0.00,WUHU21623XXSP,2013-08-03 18:29:00,
2013-08-03 11:33:00,70.9,61.4,30.03,West,270,5.4,5.4,72,0.00,,,0.00,WUHU21623XXSP,2013-08-03 18:33:00,
2013-08-03 11:34:00,70.9,61.4,30.03,West,270,5.4,5.4,72,0.00,,,0.00,WUHU21623XXSP,2013-08-03 18:34:00,
2013-08-03 11:42:00,71.4,61.2,30.02,NW,315,2.2,5.4,70,0.00,,,0.00,WUHU21623XXSP,2013-08-03 18:42:00,
2013-08-03 11:48:00,71.8,61.1,30.02,NNW,337,0.0,2.2,69,0.00,,,0.00,WUHU21623XXSP,2013-08-03 18:48:00,
2013-08-03 11:49:00,71.8,61.1,30.02,NNW,337,0.0,2.2,69,0.00,,,0.00,WUHU21623XXSP,2013-08-03 18:49:00,
2013-08-03 11:53:00,71.8,60.6,30.02,North,0,0.0,0.0,68,0.00,,,0.00,WUHU21623XXSP,2013-08-03 18:53:00,
2013-08-03 11:54:00,71.8,60.6,30.02,North,0,0.0,0.0,68,0.00,,,0.00,WUHU21623XXSP,2013-08-03 18:54:00,
2013-08-03 11:59:00,72.1,61.4,30.02,NNW,337,2.5,2.5,69,0.00,,,0.00,WUHU21623XXSP,2013-08-03 18:59:00,
2013-08-03 12:05:00,72.7,61.5,30.02,NNW,337,0.0,2.5,68,0.00,,,0.00,WUHU21623XXSP,2013-08-03 19:05:00,
2013-08-03 12:06:00,72.7,61.5,30.02,NNW,337,0.0,2.5,68,0.00,,,0.00,WUHU21623XXSP,2013-08-03 19:06:00,
2013-08-03 12:10:00,73.0,61.0,30.02,NNW,337,0.0,0.0,66,0.00,,,0.00,WUHU21623XXSP,2013-08-03 19:10:00,
2013-08-03 12:11:00,73.0,61.0,30.02,NNW,337,0.0,0.0,66,0.00,,,0.00,WUHU21623XXSP,2013-08-03 19:11:00,
2013-08-03 12:16:00,73.2,61.2,30.02,WNW,292,0.0,0.0,66,0.00,,,0.00,WUHU21623XXSP,2013-08-03 19:16:00,
2013-08-03 12:17:00,73.2,61.2,30.02,WNW,292,0.0,0.0,66,0.00,,,0.00,WUHU21623XXSP,2013-08-03 19:17:00,
2013-08-03 12:21:00,73.6,61.8,30.01,NNW,337,0.0,0.0,66,0.00,,,0.00,WUHU21623XXSP,2013-08-03 19:21:00,
2013-08-03 12:22:00,73.6,61.8,30.01,NNW,337,0.0,0.0,66,0.00,,,0.00,WUHU21623XXSP,2013-08-03 19:22:00,
2013-08-03 12:23:00,73.8,61.2,30.01,WNW,292,4.3,4.3,65,0.00,,,0.00,WUHU21623XXSP,2013-08-03 19:23:00,
2013-08-03 12:27:00,73.8,61.2,30.01,WNW,292,4.3,4.3,65,0.00,,,0.00,WUHU21623XXSP,2013-08-03 19:27:00,
2013-08-03 12:28:00,73.8,61.2,30.01,WNW,292,4.3,4.3,65,0.00,,,0.00,WUHU21623XXSP,2013-08-03 19:28:00,
2013-08-03 12:31:00,73.8,61.2,30.01,NNE,22,0.0,4.3,65,0.00,,,0.00,WUHU21623XXSP,2013-08-03 19:31:00,
2013-08-03 12:32:00,73.8,61.2,30.01,NNE,22,0.0,4.3,65,0.00,,,0.00,WUHU21623XXSP,2013-08-03 19:32:00,
2013-08-03 12:33:00,73.8,60.8,30.01,North,0,1.1,4.3,64,0.00,,,0.00,WUHU21623XXSP,2013-08-03 19:33:00,
2013-08-03 12:37:00,73.8,60.8,30.01,North,0,1.1,1.1,64,0.00,,,0.00,WUHU21623XXSP,2013-08-03 19:37:00,
2013-08-03 12:39:00,73.8,60.8,30.01,WNW,292,0.0,1.1,64,0.00,,,0.00,WUHU21623XXSP,2013-08-03 19:39:00,
2013-08-03 12:40:00,73.8,60.8,30.01,WNW,292,0.0,1.1,64,0.00,,,0.00,WUHU21623XXSP,2013-08-03 19:40:00,
2013-08-03 12:42:00,73.8,60.8,30.01,WNW,292,0.0,1.1,64,0.00,,,0.00,WUHU21623XXSP,2013-08-03 19:42:00,
2013-08-03 12:45:00,73.8,60.8,30.02,West,270,2.7,2.7,64,0.00,,,0.00,WUHU21623XXSP,2013-08-03 19:45:00,
2013-08-03 12:47:00,73.8,60.8,30.02,West,270,2.7,2.7,64,0.00,,,0.00,WUHU21623XXSP,2013-08-03 19:47:00,
2013-08-03 12:50:00,73.8,60.8,30.01,North,0,0.0,2.7,64,0.00,,,0.00,WUHU21623XXSP,2013-08-03 19:50:00,
2013-08-03 12:51:00,73.8,60.8,30.01,North,0,0.0,2.7,64,0.00,,,0.00,WUHU21623XXSP,2013-08-03 19:51:00,
2013-08-03 12:52:00,73.8,60.8,30.01,North,0,0.0,2.7,64,0.00,,,0.00,WUHU21623XXSP,2013-08-03 19:52:00,
2013-08-03 12:55:00,73.9,60.5,30.01,NNW,337,0.0,0.0,63,0.00,,,0.00,WUHU21623XXSP,2013-08-03 19:55:00,
2013-08-03 12:56:00,73.9,60.5,30.01,NNW,337,0.0,0.0,63,0.00,,,0.00,WUHU21623XXSP,2013-08-03 19:56:00,
2013-08-03 12:58:00,73.8,60.3,30.01,NW,315,0.0,0.0,63,0.00,,,0.00,WUHU21623XXSP,2013-08-03 19:58:00,
2013-08-03 13:01:00,73.8,60.3,30.01,North,0,0.0,0.0,63,0.00,,,0.00,WUHU21623XXSP,2013-08-03 20:01:00,
2013-08-03 13:02:00,73.8,60.3,30.01,North,0,0.0,0.0,63,0.00,,,0.00,WUHU21623XXSP,2013-08-03 20:02:00,
2013-08-03 13:03:00,73.8,60.3,30.01,North,0,0.0,0.0,63,0.00,,,0.00,WUHU21623XXSP,2013-08-03 20:03:00,
2013-08-03 13:06:00,73.6,60.2,30.01,North,0,0.0,0.0,63,0.00,,,0.00,WUHU21623XXSP,2013-08-03 20:06:00,
2013-08-03 13:07:00,73.6,60.2,30.01,North,0,0.0,0.0,63,0.00,,,0.00,WUHU21623XXSP,2013-08-03 20:07:00,
2013-08-03 13:08:00,73.6,59.7,30.01,WSW,247,0.0,0.0,63,0.00,,,0.00,WUHU21623XXSP,2013-08-03 20:08:00,
2013-08-03 13:12:00,73.6,60.2,30.01,North,0,0.0,0.0,63,0.00,,,0.00,WUHU21623XXSP,2013-08-03 20:12:00,
2013-08-03 13:13:00,73.6,60.2,30.01,North,0,0.0,0.0,63,0.00,,,0.00,WUHU21623XXSP,2013-08-03 20:13:00,
2013-08-03 13:18:00,73.8,60.3,30.01,West,270,2.7,2.7,63,0.00,,,0.00,WUHU21623XXSP,2013-08-03 20:18:00,
2013-08-03 13:23:00,73.9,60.5,30.01,West,270,6.3,6.3,62,0.00,,,0.00,WUHU21623XXSP,2013-08-03 20:23:00,
2013-08-03 13:28:00,73.9,59.6,30.01,North,0,2.9,6.3,61,0.00,,,0.00,WUHU21623XXSP,2013-08-03 20:28:00,
2013-08-03 13:29:00,73.9,59.6,30.01,North,0,2.9,6.3,61,0.00,,,0.00,WUHU21623XXSP,2013-08-03 20:29:00,
2013-08-03 13:33:00,73.6,59.7,30.01,West,270,0.0,2.9,62,0.00,,,0.00,WUHU21623XXSP,2013-08-03 20:33:00,
2013-08-03 13:34:00,73.6,59.7,30.01,West,270,0.0,2.9,62,0.00,,,0.00,WUHU21623XXSP,2013-08-03 20:34:00,
2013-08-03 13:38:00,73.8,59.9,30.01,WNW,292,0.0,0.0,62,0.00,,,0.00,WUHU21623XXSP,2013-08-03 20:38:00,
2013-08-03 13:39:00,73.8,59.9,30.01,WNW,292,0.0,0.0,62,0.00,,,0.00,WUHU21623XXSP,2013-08-03 20:39:00,
2013-08-03 13:44:00,73.8,59.4,30.01,NW,315,0.0,0.0,61,0.00,,,0.00,WUHU21623XXSP,2013-08-03 20:44:00,
2013-08-03 13:49:00,73.8,59.4,30.01,ENE,67,2.0,2.0,61,0.00,,,0.00,WUHU21623XXSP,2013-08-03 20:49:00,
2013-08-03 13:54:00,73.8,59.4,30.01,NW,315,0.0,2.0,61,0.00,,,0.00,WUHU21623XXSP,2013-08-03 20:54:00,
2013-08-03 13:55:00,73.6,59.3,30.01,WSW,247,2.2,2.2,61,0.00,,,0.00,WUHU21623XXSP,2013-08-03 20:55:00,
2013-08-03 13:59:00,73.6,59.3,30.01,WSW,247,2.2,2.2,61,0.00,,,0.00,WUHU21623XXSP,2013-08-03 20:59:00,
2013-08-03 14:00:00,73.6,59.3,30.01,WSW,247,2.2,2.2,61,0.00,,,0.00,WUHU21623XXSP,2013-08-03 21:00:00,
2013-08-03 14:04:00,73.6,59.3,30.01,NNW,337,0.0,2.2,61,0.00,,,0.00,WUHU21623XXSP,2013-08-03 21:04:00,
2013-08-03 14:05:00,73.6,59.3,30.01,NNW,337,0.0,2.2,61,0.00,,,0.00,WUHU21623XXSP,2013-08-03 21:05:00,
2013-08-03 14:06:00,73.4,59.1,30.01,West,270,3.1,3.1,61,0.00,,,0.00,WUHU21623XXSP,2013-08-03 21:06:00,
2013-08-03 14:09:00,73.4,59.1,30.01,NE,45,0.0,3.1,61,0.00,,,0.00,WUHU21623XXSP,2013-08-03 21:09:00,
2013-08-03 14:10:00,73.4,59.1,30.01,NE,45,0.0,3.1,61,0.00,,,0.00,WUHU21623XXSP,2013-08-03 21:10:00,
2013-08-03 14:12:00,73.4,59.1,30.00,North,0,0.0,3.1,61,0.00,,,0.00,WUHU21623XXSP,2013-08-03 21:12:00,
2013-08-03 14:15:00,73.4,58.6,30.01,NNE,22,1.6,3.1,60,0.00,,,0.00,WUHU21623XXSP,2013-08-03 21:15:00,
2013-08-03 14:17:00,73.4,58.6,30.01,NNE,22,1.6,1.6,60,0.00,,,0.00,WUHU21623XXSP,2013-08-03 21:17:00,
2013-08-03 14:20:00,73.2,58.5,30.00,WNW,292,4.3,4.3,60,0.00,,,0.00,WUHU21623XXSP,2013-08-03 21:20:00,
2013-08-03 14:21:00,73.2,58.5,30.00,WNW,292,4.3,4.3,60,0.00,,,0.00,WUHU21623XXSP,2013-08-03 21:21:00,
2013-08-03 14:22:00,73.2,58.5,30.00,WNW,292,4.3,4.3,60,0.00,,,0.00,WUHU21623XXSP,2013-08-03 21:22:00,
2013-08-03 14:27:00,72.9,58.2,30.00,WNW,292,0.0,4.3,60,0.00,,,0.00,WUHU21623XXSP,2013-08-03 21:27:00,
2013-08-03 14:32:00,72.3,57.8,30.00,North,0,1.8,1.8,60,0.00,,,0.00,WUHU21623XXSP,2013-08-03 21:32:00,
2013-08-03 14:37:00,72.1,57.5,30.00,NW,315,1.1,1.8,60,0.00,,,0.00,WUHU21623XXSP,2013-08-03 21:37:00,
2013-08-03 14:42:00,71.4,57.3,30.00,North,0,1.6,1.6,61,0.00,,,0.00,WUHU21623XXSP,2013-08-03 21:42:00,
2013-08-03 14:43:00,71.4,57.3,30.00,North,0,1.6,1.6,61,0.00,,,0.00,WUHU21623XXSP,2013-08-03 21:43:00,
2013-08-03 14:48:00,71.2,57.1,30.00,NE,45,0.0,1.6,61,0.00,,,0.00,WUHU21623XXSP,2013-08-03 21:48:00,
2013-08-03 14:53:00,71.2,57.5,30.00,SSW,202,0.0,0.0,62,0.00,,,0.00,WUHU21623XXSP,2013-08-03 21:53:00,
2013-08-03 14:54:00,71.2,57.5,30.00,SSW,202,0.0,0.0,62,0.00,,,0.00,WUHU21623XXSP,2013-08-03 21:54:00,
2013-08-03 14:58:00,71.2,57.4,30.00,ESE,112,2.7,2.7,62,0.00,,,0.00,WUHU21623XXSP,2013-08-03 21:58:00,
2013-08-03 14:59:00,71.2,57.5,29.99,WNW,292,4.3,4.3,62,0.00,,,0.00,WUHU21623XXSP,2013-08-03 21:59:00,
2013-08-03 15:03:00,71.2,57.5,30.00,NNW,337,4.5,4.5,62,0.00,,,0.00,WUHU21623XXSP,2013-08-03 22:03:00,
2013-08-03 15:04:00,71.2,57.5,30.00,NNW,337,4.5,4.5,62,0.00,,,0.00,WUHU21623XXSP,2013-08-03 22:04:00,
2013-08-03 15:09:00,70.9,57.2,30.00,WSW,247,6.9,6.9,62,0.00,,,0.00,WUHU21623XXSP,2013-08-03 22:09:00,
2013-08-03 15:10:00,70.9,57.2,30.00,WSW,247,6.9,6.9,62,0.00,,,0.00,WUHU21623XXSP,2013-08-03 22:10:00,
2013-08-03 15:14:00,71.1,57.4,29.99,NW,315,3.4,6.9,63,0.00,,,0.00,WUHU21623XXSP,2013-08-03 22:14:00,
2013-08-03 15:15:00,71.1,57.4,29.99,NW,315,3.4,6.9,63,0.00,,,0.00,WUHU21623XXSP,2013-08-03 22:15:00,
2013-08-03 15:20:00,71.2,58.0,29.99,West,270,0.0,3.4,63,0.00,,,0.00,WUHU21623XXSP,2013-08-03 22:20:00,
2013-08-03 15:21:00,71.2,58.0,29.99,West,270,0.0,3.4,63,0.00,,,0.00,WUHU21623XXSP,2013-08-03 22:21:00,
2013-08-03 15:25:00,71.2,58.0,29.99,NNW,337,0.0,0.0,63,0.00,,,0.00,WUHU21623XXSP,2013-08-03 22:25:00,
2013-08-03 15:27:00,71.2,57.5,29.99,NE,45,0.0,0.0,62,0.00,,,0.00,WUHU21623XXSP,2013-08-03 22:27:00,
2013-08-03 15:30:00,71.2,57.5,29.99,NE,45,0.0,0.0,62,0.00,,,0.00,WUHU21623XXSP,2013-08-03 22:30:00,
2013-08-03 15:31:00,71.2,57.5,29.99,NE,45,0.0,0.0,62,0.00,,,0.00,WUHU21623XXSP,2013-08-03 22:31:00,
2013-08-03 15:32:00,71.2,58.0,29.99,NW,315,5.8,5.8,63,0.00,,,0.00,WUHU21623XXSP,2013-08-03 22:32:00,
2013-08-03 15:37:00,71.2,57.5,29.99,NNW,337,7.4,7.4,62,0.00,,,0.00,WUHU21623XXSP,2013-08-03 22:37:00,
2013-08-03 15:38:00,71.2,57.5,29.99,NNW,337,7.4,7.4,62,0.00,,,0.00,WUHU21623XXSP,2013-08-03 22:38:00,
2013-08-03 15:42:00,71.2,57.5,29.98,ENE,67,5.4,7.4,62,0.00,,,0.00,WUHU21623XXSP,2013-08-03 22:42:00,
2013-08-03 15:43:00,71.2,57.5,29.98,ENE,67,5.4,7.4,62,0.00,,,0.00,WUHU21623XXSP,2013-08-03 22:43:00,
2013-08-03 15:47:00,70.7,57.1,29.99,North,0,3.1,5.4,62,0.00,,,0.00,WUHU21623XXSP,2013-08-03 22:47:00,
2013-08-03 15:48:00,70.7,57.1,29.99,North,0,3.1,5.4,62,0.00,,,0.00,WUHU21623XXSP,2013-08-03 22:48:00,
2013-08-03 15:53:00,70.3,57.1,29.98,ENE,67,3.4,3.4,63,0.00,,,0.00,WUHU21623XXSP,2013-08-03 22:53:00,
2013-08-03 15:54:00,70.3,57.1,29.98,ENE,67,3.4,3.4,63,0.00,,,0.00,WUHU21623XXSP,2013-08-03 22:54:00,
2013-08-03 15:58:00,70.2,57.1,29.98,WSW,247,0.0,3.4,63,0.00,,,0.00,WUHU21623XXSP,2013-08-03 22:58:00,
2013-08-03 15:59:00,70.2,57.0,29.98,North,0,0.0,3.4,63,0.00,,,0.00,WUHU21623XXSP,2013-08-03 22:59:00,
2013-08-03 16:03:00,70.0,56.8,29.98,North,0,3.8,3.8,63,0.00,,,0.00,WUHU21623XXSP,2013-08-03 23:03:00,
2013-08-03 16:04:00,70.0,56.8,29.98,North,0,3.8,3.8,63,0.00,,,0.00,WUHU21623XXSP,2013-08-03 23:04:00,
2013-08-03 16:05:00,70.0,56.8,29.98,North,0,3.8,3.8,63,0.00,,,0.00,WUHU21623XXSP,2013-08-03 23:05:00,
2013-08-03 16:08:00,70.0,57.2,29.98,WSW,247,2.5,3.8,64,0.00,,,0.00,WUHU21623XXSP,2013-08-03 23:08:00,
2013-08-03 16:09:00,70.0,57.2,29.98,WSW,247,2.5,3.8,64,0.00,,,0.00,WUHU21623XXSP,2013-08-03 23:09:00,
2013-08-03 16:10:00,70.0,57.2,29.98,NNW,337,0.0,3.8,64,0.00,,,0.00,WUHU21623XXSP,2013-08-03 23:10:00,
2013-08-03 16:14:00,70.0,57.2,29.98,NNW,337,0.0,2.5,64,0.00,,,0.00,WUHU21623XXSP,2013-08-03 23:14:00,
2013-08-03 16:15:00,70.0,57.2,29.98,NNW,337,0.0,2.5,64,0.00,,,0.00,WUHU21623XXSP,2013-08-03 23:15:00,
2013-08-03 16:19:00,70.2,57.0,29.98,North,0,8.1,8.1,63,0.00,,,0.00,WUHU21623XXSP,2013-08-03 23:19:00,
2013-08-03 16:20:00,70.0,56.8,29.98,East,90,2.0,8.1,63,0.00,,,0.00,WUHU21623XXSP,2013-08-03 23:20:00,
2013-08-03 16:24:00,69.6,56.6,29.98,NW,315,3.6,8.1,63,0.00,,,0.00,WUHU21623XXSP,2013-08-03 23:24:00,
2013-08-03 16:25:00,69.6,56.6,29.98,NW,315,3.6,8.1,63,0.00,,,0.00,WUHU21623XXSP,2013-08-03 23:25:00,
2013-08-03 16:29:00,69.3,56.3,29.98,WSW,247,3.4,3.6,64,0.00,,,0.00,WUHU21623XXSP,2013-08-03 23:29:00,
2013-08-03 16:30:00,69.3,56.3,29.98,WSW,247,3.4,3.6,64,0.00,,,0.00,WUHU21623XXSP,2013-08-03 23:30:00,
2013-08-03 16:31:00,69.3,56.3,29.98,WSW,247,3.4,3.6,64,0.00,,,0.00,WUHU21623XXSP,2013-08-03 23:31:00,
2013-08-03 16:35:00,69.1,56.4,29.97,WSW,247,0.7,3.4,64,0.00,,,0.00,WUHU21623XXSP,2013-08-03 23:35:00,
2013-08-03 16:36:00,69.1,56.4,29.97,WSW,247,0.7,3.4,64,0.00,,,0.00,WUHU21623XXSP,2013-08-03 23:36:00,
2013-08-03 16:40:00,68.9,56.4,29.97,WSW,247,0.0,0.7,64,0.00,,,0.00,WUHU21623XXSP,2013-08-03 23:40:00,
2013-08-03 16:41:00,68.9,56.4,29.97,WSW,247,0.0,0.7,64,0.00,,,0.00,WUHU21623XXSP,2013-08-03 23:41:00,
2013-08-03 16:42:00,68.9,56.6,29.97,WSW,247,1.8,1.8,65,0.00,,,0.00,WUHU21623XXSP,2013-08-03 23:42:00,
2013-08-03 16:45:00,68.9,56.6,29.97,WSW,247,1.8,1.8,65,0.00,,,0.00,WUHU21623XXSP,2013-08-03 23:45:00,
2013-08-03 16:46:00,68.7,56.4,29.96,WSW,247,2.5,2.5,65,0.00,,,0.00,WUHU21623XXSP,2013-08-03 23:46:00,
2013-08-03 16:47:00,68.7,56.4,29.96,WSW,247,2.5,2.5,65,0.00,,,0.00,WUHU21623XXSP,2013-08-03 23:47:00,
2013-08-03 16:52:00,68.7,56.4,29.96,WSW,247,0.0,2.5,65,0.00,,,0.00,WUHU21623XXSP,2013-08-03 23:52:00,
2013-08-03 16:57:00,68.7,56.4,29.96,WSW,247,0.4,0.4,65,0.00,,,0.00,WUHU21623XXSP,2013-08-03 23:57:00,
2013-08-03 16:58:00,68.7,56.4,29.96,WSW,247,0.4,0.4,65,0.00,,,0.00,WUHU21623XXSP,2013-08-03 23:58:00,
2013-08-03 17:03:00,68.5,56.3,29.96,WSW,247,6.3,6.3,65,0.00,,,0.00,WUHU21623XXSP,2013-08-04 00:03:00,
2013-08-03 17:08:00,68.5,56.3,29.95,WSW,247,2.5,6.3,65,0.00,,,0.00,WUHU21623XXSP,2013-08-04 00:08:00,
2013-08-03 17:13:00,68.2,56.1,29.95,WSW,247,0.0,2.5,65,0.00,,,0.00,WUHU21623XXSP,2013-08-04 00:13:00,
2013-08-03 17:14:00,68.2,56.1,29.95,WSW,247,0.0,2.5,65,0.00,,,0.00,WUHU21623XXSP,2013-08-04 00:14:00,
2013-08-03 17:20:00,68.0,56.2,29.95,WSW,247,2.5,2.5,66,0.00,,,0.00,WUHU21623XXSP,2013-08-04 00:20:00,
2013-08-03 17:21:00,68.0,56.2,29.95,WSW,247,2.5,2.5,66,0.00,,,0.00,WUHU21623XXSP,2013-08-04 00:21:00,
2013-08-03 17:25:00,67.8,56.0,29.95,WSW,247,3.4,3.4,66,0.00,,,0.00,WUHU21623XXSP,2013-08-04 00:25:00,
2013-08-03 17:26:00,67.8,56.0,29.95,WSW,247,3.4,3.4,66,0.00,,,0.00,WUHU21623XXSP,2013-08-04 00:26:00,
2013-08-03 17:30:00,67.6,56.0,29.95,WSW,247,3.6,3.6,66,0.00,,,0.00,WUHU21623XXSP,2013-08-04 00:30:00,
2013-08-03 17:33:00,67.3,55.5,29.95,WSW,247,0.0,3.6,66,0.00,,,0.00,WUHU21623XXSP,2013-08-04 00:33:00,
2013-08-03 17:35:00,67.3,55.5,29.95,WSW,247,0.0,3.6,66,0.00,,,0.00,WUHU21623XXSP,2013-08-04 00:35:00,
2013-08-03 17:38:00,67.3,55.9,29.95,WSW,247,0.0,0.0,67,0.00,,,0.00,WUHU21623XXSP,2013-08-04 00:38:00,
2013-08-03 17:40:00,67.3,55.9,29.95,WSW,247,0.0,0.0,67,0.00,,,0.00,WUHU21623XXSP,2013-08-04 00:40:00,
2013-08-03 17:44:00,66.9,55.6,29.95,WSW,247,5.1,5.1,67,0.00,,,0.00,WUHU21623XXSP,2013-08-04 00:44:00,
2013-08-03 17:46:00,66.9,55.6,29.95,WSW,247,5.1,5.1,67,0.00,,,0.00,WUHU21623XXSP,2013-08-04 00:46:00,
2013-08-03 17:49:00,66.9,55.6,29.95,WSW,247,0.0,5.1,67,0.00,,,0.00,WUHU21623XXSP,2013-08-04 00:49:00,
2013-08-03 17:52:00,66.7,55.4,29.95,WSW,247,0.0,5.1,67,0.00,,,0.00,WUHU21623XXSP,2013-08-04 00:52:00,
2013-08-03 17:54:00,66.7,55.4,29.95,WSW,247,0.0,0.0,67,0.00,,,0.00,WUHU21623XXSP,2013-08-04 00:54:00,
2013-08-03 17:55:00,66.6,55.6,29.95,WSW,247,0.0,0.0,68,0.00,,,0.00,WUHU21623XXSP,2013-08-04 00:55:00,
2013-08-03 17:57:00,66.4,55.6,29.95,WSW,247,0.0,0.0,68,0.00,,,0.00,WUHU21623XXSP,2013-08-04 00:57:00,
2013-08-03 17:59:00,66.4,55.6,29.95,WSW,247,0.0,0.0,68,0.00,,,0.00,WUHU21623XXSP,2013-08-04 00:59:00,
2013-08-03 18:00:00,66.4,55.6,29.95,WSW,247,0.0,0.0,68,0.00,,,0.00,WUHU21623XXSP,2013-08-04 01:00:00,
2013-08-03 18:03:00,66.4,55.5,29.95,WSW,247,6.0,6.0,68,0.00,,,0.00,WUHU21623XXSP,2013-08-04 01:03:00,
2013-08-03 18:04:00,66.4,55.5,29.95,WSW,247,6.0,6.0,68,0.00,,,0.00,WUHU21623XXSP,2013-08-04 01:04:00,
2013-08-03 18:05:00,66.4,55.5,29.95,WSW,247,6.0,6.0,68,0.00,,,0.00,WUHU21623XXSP,2013-08-04 01:05:00,
2013-08-03 18:13:00,65.7,54.8,29.94,WSW,247,0.0,0.0,68,0.00,,,0.00,WUHU21623XXSP,2013-08-04 01:13:00,
2013-08-03 18:14:00,65.7,54.8,29.94,WSW,247,0.0,0.0,68,0.00,,,0.00,WUHU21623XXSP,2013-08-04 01:14:00,
2013-08-03 18:18:00,65.5,55.0,29.94,WSW,247,0.0,0.0,69,0.00,,,0.00,WUHU21623XXSP,2013-08-04 01:18:00,
2013-08-03 18:19:00,65.5,55.0,29.94,WSW,247,0.0,0.0,69,0.00,,,0.00,WUHU21623XXSP,2013-08-04 01:19:00,
2013-08-03 18:24:00,65.3,54.9,29.94,WSW,247,0.0,0.0,69,0.00,,,0.00,WUHU21623XXSP,2013-08-04 01:24:00,
2013-08-03 18:29:00,65.1,55.1,29.94,East,90,0.0,0.0,70,0.00,,,0.00,WUHU21623XXSP,2013-08-04 01:29:00,
2013-08-03 18:30:00,65.1,55.1,29.94,East,90,0.0,0.0,70,0.00,,,0.00,WUHU21623XXSP,2013-08-04 01:30:00,
2013-08-03 18:35:00,64.9,55.0,29.94,West,270,0.9,0.9,70,0.00,,,0.00,WUHU21623XXSP,2013-08-04 01:35:00,
2013-08-03 18:36:00,64.9,55.0,29.94,West,270,0.9,0.9,70,0.00,,,0.00,WUHU21623XXSP,2013-08-04 01:36:00,
2013-08-03 18:40:00,64.8,54.8,29.94,WSW,247,0.0,0.9,70,0.00,,,0.00,WUHU21623XXSP,2013-08-04 01:40:00,
2013-08-03 18:41:00,64.8,54.8,29.94,WSW,247,0.0,0.9,70,0.00,,,0.00,WUHU21623XXSP,2013-08-04 01:41:00,
2013-08-03 18:45:00,64.6,54.7,29.94,WSW,247,0.0,0.0,70,0.00,,,0.00,WUHU21623XXSP,2013-08-04 01:45:00,
2013-08-03 18:46:00,64.6,54.7,29.94,WSW,247,0.0,0.0,70,0.00,,,0.00,WUHU21623XXSP,2013-08-04 01:46:00,
2013-08-03 18:47:00,64.6,54.7,29.94,WSW,247,0.0,0.0,70,0.00,,,0.00,WUHU21623XXSP,2013-08-04 01:47:00,
2013-08-03 18:52:00,64.8,55.2,29.94,WSW,247,2.0,2.0,71,0.00,,,0.00,WUHU21623XXSP,2013-08-04 01:52:00,
2013-08-03 18:53:00,64.8,55.2,29.94,WSW,247,2.0,2.0,71,0.00,,,0.00,WUHU21623XXSP,2013-08-04 01:53:00,
2013-08-03 18:57:00,65.3,55.7,29.94,WSW,247,1.3,2.0,71,0.00,,,0.00,WUHU21623XXSP,2013-08-04 01:57:00,
2013-08-03 18:58:00,65.3,55.7,29.94,WSW,247,1.3,2.0,71,0.00,,,0.00,WUHU21623XXSP,2013-08-04 01:58:00,
2013-08-03 19:02:00,66.0,56.2,29.93,West,270,4.9,4.9,70,0.00,,,0.00,WUHU21623XXSP,2013-08-04 02:02:00,
2013-08-03 19:05:00,66.9,56.4,29.93,WSW,247,3.6,4.9,69,0.00,,,0.00,WUHU21623XXSP,2013-08-04 02:05:00,
2013-08-03 19:07:00,66.9,56.4,29.93,WSW,247,3.6,4.9,69,0.00,,,0.00,WUHU21623XXSP,2013-08-04 02:07:00,
2013-08-03 19:10:00,67.6,56.7,29.93,WSW,247,0.0,3.6,68,0.00,,,0.00,WUHU21623XXSP,2013-08-04 02:10:00,
2013-08-03 19:11:00,67.6,56.7,29.93,WSW,247,0.0,3.6,68,0.00,,,0.00,WUHU21623XXSP,2013-08-04 02:11:00,
2013-08-03 19:12:00,68.2,56.9,29.94,WSW,247,0.0,3.6,67,0.00,,,0.00,WUHU21623XXSP,2013-08-04 02:12:00,
2013-08-03 19:15:00,68.2,56.9,29.94,WSW,247,0.0,0.0,67,0.00,,,0.00,WUHU21623XXSP,2013-08-04 02:15:00,
2013-08-03 19:16:00,68.5,57.1,29.93,WSW,247,0.0,0.0,67,0.00,,,0.00,WUHU21623XXSP,2013-08-04 02:16:00,
2013-08-03 19:18:00,68.5,57.1,29.93,WSW,247,0.0,0.0,67,0.00,,,0.00,WUHU21623XXSP,2013-08-04 02:18:00,
2013-08-03 19:20:00,68.9,57.0,29.93,WSW,247,0.0,0.0,66,0.00,,,0.00,WUHU21623XXSP,2013-08-04 02:20:00,
2013-08-03 19:21:00,68.9,57.0,29.93,WSW,247,0.0,0.0,66,0.00,,,0.00,WUHU21623XXSP,2013-08-04 02:21:00,
2013-08-03 19:22:00,68.9,57.0,29.93,WSW,247,0.0,0.0,66,0.00,,,0.00,WUHU21623XXSP,2013-08-04 02:22:00,
2013-08-03 19:23:00,69.6,56.9,29.94,WSW,247,0.0,0.0,65,0.00,,,0.00,WUHU21623XXSP,2013-08-04 02:23:00,
2013-08-03 19:25:00,69.6,56.9,29.94,WSW,247,0.0,0.0,65,0.00,,,0.00,WUHU21623XXSP,2013-08-04 02:25:00,
2013-08-03 19:26:00,69.6,56.9,29.94,WSW,247,0.0,0.0,65,0.00,,,0.00,WUHU21623XXSP,2013-08-04 02:26:00,
2013-08-03 19:28:00,70.0,57.6,29.93,WSW,247,0.0,0.0,65,0.00,,,0.00,WUHU21623XXSP,2013-08-04 02:28:00,
2013-08-03 19:30:00,70.3,57.4,29.94,WSW,247,0.0,0.0,64,0.00,,,0.00,WUHU21623XXSP,2013-08-04 02:30:00,
2013-08-03 19:31:00,70.3,57.4,29.94,WSW,247,0.0,0.0,64,0.00,,,0.00,WUHU21623XXSP,2013-08-04 02:31:00,
2013-08-03 19:32:00,70.3,57.4,29.94,WSW,247,0.0,0.0,64,0.00,,,0.00,WUHU21623XXSP,2013-08-04 02:32:00,
2013-08-03 19:35:00,70.5,57.3,29.94,North,0,2.0,2.0,63,0.00,,,0.00,WUHU21623XXSP,2013-08-04 02:35:00,
2013-08-03 19:36:00,70.5,57.3,29.94,North,0,2.0,2.0,63,0.00,,,0.00,WUHU21623XXSP,2013-08-04 02:36:00,
2013-08-03 19:37:00,70.5,57.3,29.94,North,0,2.0,2.0,63,0.00,,,0.00,WUHU21623XXSP,2013-08-04 02:37:00,
2013-08-03 19:41:00,70.2,56.6,29.94,NW,315,0.0,2.0,62,0.00,,,0.00,WUHU21623XXSP,2013-08-04 02:41:00,
2013-08-03 19:42:00,69.6,56.8,29.94,NW,315,0.0,2.0,63,0.00,,,0.00,WUHU21623XXSP,2013-08-04 02:42:00,
2013-08-03 19:46:00,69.3,56.1,29.94,North,0,0.0,0.0,63,0.00,,,0.00,WUHU21623XXSP,2013-08-04 02:46:00,
2013-08-03 19:47:00,69.3,56.1,29.94,North,0,0.0,0.0,63,0.00,,,0.00,WUHU21623XXSP,2013-08-04 02:47:00,
2013-08-03 19:48:00,69.3,56.1,29.94,North,0,0.0,0.0,63,0.00,,,0.00,WUHU21623XXSP,2013-08-04 02:48:00,
2013-08-03 19:52:00,68.4,55.6,29.94,West,270,0.0,0.0,63,0.00,,,0.00,WUHU21623XXSP,2013-08-04 02:52:00,
2013-08-03 19:53:00,67.8,55.1,29.94,NNW,337,0.0,0.0,64,0.00,,,0.00,WUHU21623XXSP,2013-08-04 02:53:00,
2013-08-03 19:57:00,66.6,54.4,29.94,NNE,22,0.0,0.0,65,0.00,,,0.00,WUHU21623XXSP,2013-08-04 02:57:00,
2013-08-03 19:58:00,66.6,54.4,29.94,NNE,22,0.0,0.0,65,0.00,,,0.00,WUHU21623XXSP,2013-08-04 02:58:00,
2013-08-03 20:02:00,65.7,54.3,29.94,North,0,0.0,0.0,67,0.00,,,0.00,WUHU21623XXSP,2013-08-04 03:02:00,
2013-08-03 20:03:00,65.1,53.9,29.94,North,0,0.0,0.0,67,0.00,,,0.00,WUHU21623XXSP,2013-08-04 03:03:00,
2013-08-03 20:07:00,64.2,53.9,29.94,NW,315,0.0,0.0,69,0.00,,,0.00,WUHU21623XXSP,2013-08-04 03:07:00,
2013-08-03 20:08:00,64.2,53.9,29.94,NW,315,0.0,0.0,69,0.00,,,0.00,WUHU21623XXSP,2013-08-04 03:08:00,
2013-08-03 20:09:00,64.2,53.9,29.94,NW,315,0.0,0.0,69,0.00,,,0.00,WUHU21623XXSP,2013-08-04 03:09:00,
2013-08-03 20:12:00,63.7,53.3,29.94,NNW,337,0.0,0.0,69,0.00,,,0.00,WUHU21623XXSP,2013-08-04 03:12:00,
2013-08-03 20:13:00,63.7,53.3,29.94,NNW,337,0.0,0.0,69,0.00,,,0.00,WUHU21623XXSP,2013-08-04 03:13:00,
2013-08-03 20:14:00,63.1,53.4,29.93,NW,315,0.0,0.0,70,0.00,,,0.00,WUHU21623XXSP,2013-08-04 03:14:00,
2013-08-03 20:17:00,63.1,53.4,29.93,NW,315,0.0,0.0,70,0.00,,,0.00,WUHU21623XXSP,2013-08-04 03:17:00,
2013-08-03 20:18:00,62.8,53.2,29.94,North,0,0.0,0.0,71,0.00,,,0.00,WUHU21623XXSP,2013-08-04 03:18:00,
2013-08-03 20:19:00,62.8,53.2,29.94,North,0,0.0,0.0,71,0.00,,,0.00,WUHU21623XXSP,2013-08-04 03:19:00,
2013-08-03 20:24:00,62.4,53.3,29.94,North,0,0.0,0.0,72,0.00,,,0.00,WUHU21623XXSP,2013-08-04 03:24:00,
2013-08-03 20:25:00,62.4,53.3,29.94,North,0,0.0,0.0,72,0.00,,,0.00,WUHU21623XXSP,2013-08-04 03:25:00,
2013-08-03 20:29:00,61.9,52.8,29.94,East,90,0.0,0.0,72,0.00,,,0.00,WUHU21623XXSP,2013-08-04 03:29:00,
2013-08-03 20:30:00,61.9,52.8,29.94,East,90,0.0,0.0,72,0.00,,,0.00,WUHU21623XXSP,2013-08-04 03:30:00,
2013-08-03 20:34:00,61.5,52.8,29.94,NW,315,0.0,0.0,73,0.00,,,0.00,WUHU21623XXSP,2013-08-04 03:34:00,
2013-08-03 20:35:00,61.5,52.8,29.94,North,0,0.0,0.0,73,0.00,,,0.00,WUHU21623XXSP,2013-08-04 03:35:00,
2013-08-03 20:40:00,61.3,53.0,29.94,WNW,292,0.0,0.0,74,0.00,,,0.00,WUHU21623XXSP,2013-08-04 03:40:00,
2013-08-03 20:45:00,61.2,52.8,29.94,NNW,337,0.0,0.0,74,0.00,,,0.00,WUHU21623XXSP,2013-08-04 03:45:00,
2013-08-03 20:46:00,61.0,52.7,29.94,North,0,0.0,0.0,74,0.00,,,0.00,WUHU21623XXSP,2013-08-04 03:46:00,
2013-08-03 20:52:00,60.6,52.7,29.95,North,0,0.0,0.0,75,0.00,,,0.00,WUHU21623XXSP,2013-08-04 03:52:00,
2013-08-03 20:57:00,60.4,52.9,29.95,NNW,337,0.0,0.0,76,0.00,,,0.00,WUHU21623XXSP,2013-08-04 03:57:00,
2013-08-03 20:58:00,60.4,52.9,29.95,NNW,337,0.0,0.0,76,0.00,,,0.00,WUHU21623XXSP,2013-08-04 03:58:00,
2013-08-03 21:01:00,60.4,52.9,29.95,NW,315,0.0,0.0,76,0.00,,,0.00,WUHU21623XXSP,2013-08-04 04:01:00,
2013-08-03 21:06:00,60.1,52.5,29.95,NE,45,0.0,0.0,76,0.00,,,0.00,WUHU21623XXSP,2013-08-04 04:06:00,
2013-08-03 21:11:00,60.1,52.5,29.95,NW,315,0.0,0.0,76,0.00,,,0.00,WUHU21623XXSP,2013-08-04 04:11:00,
2013-08-03 21:12:00,59.9,52.7,29.95,North,0,0.0,0.0,77,0.00,,,0.00,WUHU21623XXSP,2013-08-04 04:12:00,
2013-08-03 21:16:00,59.7,52.5,29.95,NW,315,0.0,0.0,77,0.00,,,0.00,WUHU21623XXSP,2013-08-04 04:16:00,
2013-08-03 21:17:00,59.7,52.5,29.95,NW,315,0.0,0.0,77,0.00,,,0.00,WUHU21623XXSP,2013-08-04 04:17:00,
2013-08-03 21:18:00,59.7,52.5,29.95,NW,315,0.0,0.0,77,0.00,,,0.00,WUHU21623XXSP,2013-08-04 04:18:00,
2013-08-03 21:21:00,59.5,52.3,29.95,North,0,0.0,0.0,77,0.00,,,0.00,WUHU21623XXSP,2013-08-04 04:21:00,
2013-08-03 21:22:00,59.5,52.3,29.95,North,0,0.0,0.0,77,0.00,,,0.00,WUHU21623XXSP,2013-08-04 04:22:00,
2013-08-03 21:23:00,59.5,52.3,29.95,ENE,67,0.0,0.0,77,0.00,,,0.00,WUHU21623XXSP,2013-08-04 04:23:00,
2013-08-03 21:27:00,59.5,52.7,29.95,NNE,22,0.0,0.0,78,0.00,,,0.00,WUHU21623XXSP,2013-08-04 04:27:00,
2013-08-03 21:28:00,59.5,52.7,29.95,NNE,22,0.0,0.0,78,0.00,,,0.00,WUHU21623XXSP,2013-08-04 04:28:00,
2013-08-03 21:32:00,59.2,52.3,29.96,West,270,0.0,0.0,78,0.00,,,0.00,WUHU21623XXSP,2013-08-04 04:32:00,
2013-08-03 21:33:00,59.2,52.3,29.96,West,270,0.0,0.0,78,0.00,,,0.00,WUHU21623XXSP,2013-08-04 04:33:00,
2013-08-03 21:37:00,59.2,52.3,29.96,North,0,0.0,0.0,78,0.00,,,0.00,WUHU21623XXSP,2013-08-04 04:37:00,
2013-08-03 21:38:00,59.2,52.3,29.96,North,0,0.0,0.0,78,0.00,,,0.00,WUHU21623XXSP,2013-08-04 04:38:00,
2013-08-03 21:42:00,58.8,52.0,29.96,North,0,0.0,0.0,78,0.00,,,0.00,WUHU21623XXSP,2013-08-04 04:42:00,
2013-08-03 21:43:00,58.8,52.0,29.96,North,0,0.0,0.0,78,0.00,,,0.00,WUHU21623XXSP,2013-08-04 04:43:00,
2013-08-03 21:44:00,58.8,52.0,29.96,North,0,0.0,0.0,78,0.00,,,0.00,WUHU21623XXSP,2013-08-04 04:44:00,
2013-08-03 21:48:00,58.8,52.3,29.96,North,0,0.0,0.0,79,0.00,,,0.00,WUHU21623XXSP,2013-08-04 04:48:00,
2013-08-03 21:49:00,58.8,52.3,29.96,North,0,0.0,0.0,79,0.00,,,0.00,WUHU21623XXSP,2013-08-04 04:49:00,
2013-08-03 21:54:00,58.8,52.3,29.96,NE,45,0.0,0.0,79,0.00,,,0.00,WUHU21623XXSP,2013-08-04 04:54:00,
2013-08-03 21:55:00,58.8,52.3,29.96,NE,45,0.0,0.0,79,0.00,,,0.00,WUHU21623XXSP,2013-08-04 04:55:00,
2013-08-03 21:59:00,58.8,52.3,29.96,NE,45,0.0,0.0,79,0.00,,,0.00,WUHU21623XXSP,2013-08-04 04:59:00,
2013-08-03 22:00:00,58.8,52.3,29.96,NE,45,0.0,0.0,79,0.00,,,0.00,WUHU21623XXSP,2013-08-04 05:00:00,
2013-08-03 22:05:00,58.8,52.3,29.96,NE,45,0.0,0.0,79,0.00,,,0.00,WUHU21623XXSP,2013-08-04 05:05:00,
2013-08-03 22:10:00,58.6,52.2,29.96,NE,45,0.0,0.0,79,0.00,,,0.00,WUHU21623XXSP,2013-08-04 05:10:00,
2013-08-03 22:11:00,58.6,52.2,29.96,NE,45,0.0,0.0,79,0.00,,,0.00,WUHU21623XXSP,2013-08-04 05:11:00,
2013-08-03 22:15:00,58.6,52.2,29.96,NE,45,0.0,0.0,79,0.00,,,0.00,WUHU21623XXSP,2013-08-04 05:15:00,
2013-08-03 22:16:00,58.6,52.2,29.96,NE,45,0.0,0.0,79,0.00,,,0.00,WUHU21623XXSP,2013-08-04 05:16:00,
2013-08-03 22:20:00,58.5,52.3,29.96,NE,45,0.0,0.0,80,0.00,,,0.00,WUHU21623XXSP,2013-08-04 05:20:00,
2013-08-03 22:21:00,58.5,52.3,29.96,NE,45,0.0,0.0,80,0.00,,,0.00,WUHU21623XXSP,2013-08-04 05:21:00,
2013-08-03 22:22:00,58.3,52.3,29.96,NE,45,0.0,0.0,80,0.00,,,0.00,WUHU21623XXSP,2013-08-04 05:22:00,
2013-08-03 22:25:00,58.3,52.2,29.96,NE,45,0.0,0.0,80,0.00,,,0.00,WUHU21623XXSP,2013-08-04 05:25:00,
2013-08-03 22:26:00,58.3,52.2,29.96,NE,45,0.0,0.0,80,0.00,,,0.00,WUHU21623XXSP,2013-08-04 05:26:00,
2013-08-03 22:28:00,58.3,52.2,29.96,NE,45,0.0,0.0,80,0.00,,,0.00,WUHU21623XXSP,2013-08-04 05:28:00,
2013-08-03 22:31:00,58.3,52.2,29.96,NE,45,0.0,0.0,80,0.00,,,0.00,WUHU21623XXSP,2013-08-04 05:31:00,
2013-08-03 22:33:00,58.3,52.2,29.96,NE,45,0.0,0.0,80,0.00,,,0.00,WUHU21623XXSP,2013-08-04 05:33:00,
2013-08-03 22:37:00,58.1,52.0,29.95,NNE,22,0.0,0.0,80,0.00,,,0.00,WUHU21623XXSP,2013-08-04 05:37:00,
2013-08-03 22:38:00,58.1,52.0,29.95,NNE,22,0.0,0.0,80,0.00,,,0.00,WUHU21623XXSP,2013-08-04 05:38:00,
2013-08-03 22:42:00,57.9,51.8,29.95,NNE,22,0.0,0.0,80,0.00,,,0.00,WUHU21623XXSP,2013-08-04 05:42:00,
2013-08-03 22:43:00,57.9,51.8,29.95,NNE,22,0.0,0.0,80,0.00,,,0.00,WUHU21623XXSP,2013-08-04 05:43:00,
2013-08-03 22:48:00,57.7,51.9,29.96,NNE,22,0.0,0.0,81,0.00,,,0.00,WUHU21623XXSP,2013-08-04 05:48:00,
2013-08-03 22:53:00,57.7,51.9,29.96,NNE,22,0.0,0.0,81,0.00,,,0.00,WUHU21623XXSP,2013-08-04 05:53:00,
2013-08-03 22:54:00,57.7,51.9,29.96,NNE,22,0.0,0.0,81,0.00,,,0.00,WUHU21623XXSP,2013-08-04 05:54:00,
2013-08-03 22:58:00,57.6,51.8,29.96,NNE,22,0.0,0.0,81,0.00,,,0.00,WUHU21623XXSP,2013-08-04 05:58:00,
2013-08-03 22:59:00,57.6,51.8,29.96,NNE,22,0.0,0.0,81,0.00,,,0.00,WUHU21623XXSP,2013-08-04 05:59:00,
2013-08-03 23:03:00,57.6,51.8,29.96,NNE,22,0.0,0.0,81,0.00,,,0.00,WUHU21623XXSP,2013-08-04 06:03:00,
2013-08-03 23:04:00,57.6,51.8,29.96,NNE,22,0.0,0.0,81,0.00,,,0.00,WUHU21623XXSP,2013-08-04 06:04:00,
2013-08-03 23:13:00,57.0,51.2,29.96,NNE,22,0.0,0.0,81,0.00,,,0.00,WUHU21623XXSP,2013-08-04 06:13:00,
2013-08-03 23:14:00,57.0,51.2,29.96,NNE,22,0.0,0.0,81,0.00,,,0.00,WUHU21623XXSP,2013-08-04 06:14:00,
2013-08-03 23:19:00,57.0,51.2,29.96,NNE,22,0.0,0.0,81,0.00,,,0.00,WUHU21623XXSP,2013-08-04 06:19:00,
2013-08-03 23:24:00,56.8,51.0,29.96,NNE,22,0.0,0.0,82,0.00,,,0.00,WUHU21623XXSP,2013-08-04 06:24:00,
2013-08-03 23:29:00,56.8,51.4,29.96,NNE,22,0.0,0.0,82,0.00,,,0.00,WUHU21623XXSP,2013-08-04 06:29:00,
2013-08-03 23:34:00,56.7,51.2,29.96,NNE,22,0.0,0.0,82,0.00,,,0.00,WUHU21623XXSP,2013-08-04 06:34:00,
2013-08-03 23:35:00,56.5,51.0,29.96,NNE,22,0.0,0.0,82,0.00,,,0.00,WUHU21623XXSP,2013-08-04 06:35:00,
2013-08-03 23:39:00,56.5,51.0,29.96,NNE,22,0.0,0.0,82,0.00,,,0.00,WUHU21623XXSP,2013-08-04 06:39:00,
2013-08-03 23:40:00,56.5,51.0,29.96,NNE,22,0.0,0.0,82,0.00,,,0.00,WUHU21623XXSP,2013-08-04 06:40:00,
2013-08-03 23:45:00,56.1,50.6,29.96,NNE,22,0.0,0.0,82,0.00,,,0.00,WUHU21623XXSP,2013-08-04 06:45:00,
2013-08-03 23:46:00,56.1,50.6,29.96,NNE,22,0.0,0.0,82,0.00,,,0.00,WUHU21623XXSP,2013-08-04 06:46:00,
2013-08-03 23:50:00,55.9,50.5,29.96,NNE,22,0.0,0.0,82,0.00,,,0.00,WUHU21623XXSP,2013-08-04 06:50:00,
2013-08-03 23:51:00,55.9,50.5,29.96,NNE,22,0.0,0.0,82,0.00,,,0.00,WUHU21623XXSP,2013-08-04 06:51:00,
2013-08-03 23:56:00,55.9,50.5,29.96,NNE,22,0.0,0.0,82,0.00,,,0.00,WUHU21623XXSP,2013-08-04 06:56:00,
2013-08-03 23:57:00,55.9,50.5,29.96,NNE,22,0.0,0.0,82,0.00,,,0.00,WUHU21623XXSP,2013-08-04 06:57:00,